Latest Weather Observations for Hamilton Island

IDQ60801

Issued at 9:32 pm EST Sunday 26 June 2016 (issued every 30 minutes, with the page automatically refreshed every 10 minutes)

About weather observations | Map of weather stations | Latest weather observations for QLD | Other Formats
Station Details ID: 033106 Name: HAMILTON ISLAND AIRPORT Lat: -20.37 Lon: 148.95 Height: 58.66 m
Data from the previous 72 hours. | See also: Recent months at Hamilton Island
Date/Time
EST
Temp
°C
App
Temp
°C
Dew
Point
°C
Rel
Hum
%
Delta-T
°C
Wind Press
QNH
hPa
Press
MSL
hPa
Rain since
9am
mm
Dir  Spd
km/h
Gust
km/h
Spd
kts
Gust
kts
26/09:30pm 21.6 20.2 16.6 73 3.0 SE 19 22 10 12 1017.2 - 0.0
26/09:00pm 21.8 21.2 16.7 73 3.1 E 15 19 8 10 1017.2 1017.1 0.0
26/08:30pm 21.7 20.5 16.2 71 3.3 ESE 17 20 9 11 1017.1 - 0.0
26/08:00pm 21.7 20.7 16.6 73 3.1 E 17 22 9 12 1017.0 - 0.0
26/07:30pm 20.8 20.5 17.4 81 2.1 SE 15 20 8 11 1016.7 - 0.0
26/07:00pm 20.6 19.4 17.4 82 2.0 SE 20 24 11 13 1016.7 - 0.0
26/06:30pm 20.6 19.9 17.4 82 2.0 SSE 17 20 9 11 1016.5 - 0.0
26/06:00pm 20.3 19.6 17.3 83 1.8 SSE 17 26 9 14 1016.1 1016.0 0.0
26/05:30pm 20.1 20.0 16.9 82 1.9 SSE 13 19 7 10 1016.2 - 0.0
26/05:00pm 20.2 18.9 16.8 81 2.1 SSE 19 22 10 12 1015.9 - 0.0
26/04:30pm 20.3 18.6 16.3 78 2.4 SE 20 26 11 14 1015.7 - 0.0
26/04:00pm 20.6 18.6 16.4 77 2.5 SE 22 26 12 14 1015.6 - 0.0
26/03:30pm 20.8 19.2 16.6 77 2.5 SE 20 26 11 14 1015.8 - 0.0
26/03:00pm 21.0 19.0 16.4 75 2.8 SSE 22 26 12 14 1015.8 1015.7 0.0
26/02:30pm 20.4 17.4 15.8 75 2.7 SSE 26 30 14 16 1016.0 - 0.0
26/02:00pm 20.6 18.0 15.8 74 2.9 SSE 24 30 13 16 1016.3 - 0.0
26/01:30pm 20.4 16.8 15.2 72 3.1 SSE 28 32 15 17 1016.6 - 0.0
26/01:00pm 20.6 17.3 14.9 70 3.4 SSE 26 32 14 17 1016.9 - 0.0
26/12:30pm 20.5 16.3 14.6 69 3.5 SSE 30 33 16 18 1017.4 - 0.0
26/12:00pm 20.6 16.5 14.9 70 3.4 SSE 30 35 16 19 1017.8 1017.7 0.0
26/11:30am 20.2 15.4 13.9 67 3.6 SSE 32 37 17 20 1018.1 - 0.0
26/11:00am 20.3 15.9 14.0 67 3.6 SSE 30 37 16 20 1018.5 - 0.0
26/10:30am 20.0 15.4 13.5 66 3.7 SSE 30 35 16 19 1018.8 - 0.0
26/10:00am 19.7 14.5 13.4 67 3.6 SSE 33 41 18 22 1018.9 - 0.0
26/09:30am 19.8 14.8 14.0 69 3.4 SSE 33 41 18 22 1019.1 - 0.0
26/09:00am 19.8 14.7 13.7 68 3.5 SSE 33 41 18 22 1018.8 1018.7 0.0
26/08:30am 19.7 14.7 13.9 69 3.3 SSE 33 41 18 22 1018.7 - 0.0
26/08:00am 19.4 13.9 13.6 69 3.3 SSE 35 43 19 23 1018.5 - 0.0
26/07:30am 19.3 14.2 13.7 70 3.2 SSE 33 41 18 22 1018.1 - 0.0
26/07:00am 18.8 13.8 13.9 73 2.8 SSE 33 41 18 22 1017.9 - 0.0
26/06:30am 18.7 13.6 13.6 72 2.9 SSE 33 39 18 21 1017.5 - 0.0
26/06:00am 18.8 13.9 13.6 72 3.0 SSE 32 43 17 23 1017.3 1017.2 0.0
26/05:30am 18.9 14.3 13.5 71 3.1 SSE 30 37 16 20 1017.2 - 0.0
26/05:00am 19.7 16.2 14.5 72 3.0 SSE 26 33 14 18 1016.9 - 0.0
26/04:30am 20.1 16.5 14.2 69 3.4 SE 26 32 14 17 1016.6 - 0.0
26/04:00am 20.0 16.2 13.7 67 3.6 SE 26 32 14 17 1016.6 - 0.0
26/03:30am 19.8 16.0 13.5 67 3.6 SE 26 32 14 17 1016.5 - 0.0
26/03:00am 19.8 16.0 13.5 67 3.6 SE 26 33 14 18 1016.7 1016.6 0.0
26/02:30am 19.8 16.5 14.0 69 3.4 SE 24 28 13 15 1016.8 - 0.0
26/02:00am 20.1 16.6 14.5 70 3.3 SE 26 32 14 17 1017.1 - 0.0
26/01:30am 20.3 16.9 14.7 70 3.3 SE 26 32 14 17 1017.3 - 0.0
26/01:00am 20.4 16.8 14.1 67 3.7 ESE 26 32 14 17 1017.7 - 0.0
26/12:30am 20.3 16.1 12.3 60 4.5 SE 26 30 14 16 1017.8 - 0.0
26/12:00am 20.3 15.5 13.0 63 4.1 SE 30 35 16 19 1018.0 1017.9 0.0
 
Date/Time
EST
Temp
°C
App
Temp
°C
Dew
Point
°C
Rel
Hum
%
Delta-T
°C
Wind Press
QNH
hPa
Press
MSL
hPa
Rain since
9am
mm
Dir  Spd
km/h
Gust
km/h
Spd
kts
Gust
kts
25/11:30pm 20.2 15.6 12.4 61 4.4 SE 28 33 15 18 1018.3 - 0.0
25/11:00pm 20.3 15.9 12.8 62 4.3 SE 28 33 15 18 1018.5 - 0.0
25/10:30pm 20.2 16.3 13.4 65 3.9 SE 26 32 14 17 1018.6 - 0.0
25/10:00pm 20.0 15.9 12.7 63 4.1 SE 26 32 14 17 1018.6 - 0.0
25/09:30pm 20.0 15.9 13.7 67 3.6 SE 28 32 15 17 1018.5 - 0.0
25/09:00pm 20.1 16.9 14.2 69 3.4 SE 24 28 13 15 1018.3 1018.2 0.0
25/08:30pm 20.1 16.1 14.0 68 3.5 SE 28 30 15 16 1018.2 - 0.0
25/08:00pm 20.2 15.8 14.1 68 3.5 SE 30 32 16 17 1018.2 - 0.0
25/07:30pm 20.1 16.0 13.8 67 3.6 SE 28 32 15 17 1018.0 - 0.0
25/07:00pm 20.3 16.2 13.7 66 3.8 ESE 28 35 15 19 1017.8 - 0.0
25/06:30pm 20.3 15.9 13.0 63 4.2 ESE 28 32 15 17 1017.4 - 0.0
25/06:00pm 20.4 16.2 13.4 64 4.0 ESE 28 33 15 18 1017.3 1017.2 0.0
25/05:30pm 20.1 16.4 12.6 62 4.2 ESE 24 30 13 16 1017.2 - 0.0
25/05:00pm 20.2 16.3 13.4 65 3.9 ESE 26 32 14 17 1016.9 - 0.0
25/04:30pm 20.0 15.8 13.5 66 3.7 ESE 28 32 15 17 1016.6 - 0.0
25/04:00pm 20.0 15.7 13.2 65 3.9 ESE 28 32 15 17 1016.4 - 0.0
25/03:30pm 20.3 16.3 14.0 67 3.6 ESE 28 33 15 18 1016.5 - 0.0
25/03:00pm 20.6 16.3 14.3 67 3.7 SE 30 35 16 19 1016.3 1016.2 0.0
25/02:30pm 20.5 15.9 13.5 64 4.0 SE 30 35 16 19 1016.6 - 0.0
25/02:00pm 20.4 15.2 12.9 62 4.3 SE 32 35 17 19 1016.8 - 0.0
25/01:30pm 20.4 15.3 13.8 66 3.8 SE 33 41 18 22 1017.1 - 0.0
25/01:00pm 20.6 15.6 14.0 66 3.8 SE 33 41 18 22 1017.4 - 0.0
25/12:30pm 20.6 15.8 14.5 68 3.6 SE 33 39 18 21 1018.0 - 0.0
25/12:00pm 20.0 13.8 12.7 63 4.1 SE 37 43 20 23 1018.4 1018.3 0.0
25/11:30am 20.7 15.4 14.1 66 3.8 SE 35 44 19 24 1018.8 - 0.0
25/11:00am 20.0 12.4 12.3 61 4.3 SSE 44 52 24 28 1018.7 - 0.0
25/10:30am 20.3 13.7 12.5 61 4.4 SE 39 44 21 24 1018.8 - 0.0
25/10:00am 20.8 14.2 13.7 64 4.1 SE 41 48 22 26 1018.8 - 0.0
25/09:30am 20.6 13.6 13.6 64 4.0 SE 43 48 23 26 1018.9 - 0.0
25/09:00am 20.8 13.8 14.2 66 3.8 SE 44 50 24 27 1018.8 1018.7 0.2
25/08:30am 21.0 14.3 14.6 67 3.8 SE 43 48 23 26 1018.4 - 0.2
25/08:00am 21.1 14.3 14.3 65 4.0 SE 43 50 23 27 1018.1 - 0.2
25/07:30am 21.0 13.7 13.4 62 4.4 SSE 44 54 24 29 1017.6 - 0.2
25/07:00am 21.1 13.7 13.0 60 4.6 SSE 44 52 24 28 1017.2 - 0.2
25/06:30am 21.2 14.8 13.1 60 4.6 SSE 39 46 21 25 1016.7 - 0.2
25/06:00am 21.6 16.1 13.5 60 4.7 SSE 35 43 19 23 1016.4 1016.3 0.2
25/05:30am 21.9 16.8 13.8 60 4.7 SSE 33 44 18 24 1016.2 - 0.2
25/05:00am 22.3 16.9 13.9 59 4.9 SSE 35 43 19 23 1015.9 - 0.2
25/04:30am 22.6 18.1 13.7 57 5.2 S 30 37 16 20 1015.7 - 0.2
25/04:00am 22.9 19.3 15.2 62 4.6 SSE 28 35 15 19 1015.7 - 0.2
25/03:30am 22.8 20.4 17.3 71 3.4 SSE 26 30 14 16 1015.5 - 0.2
25/03:00am 22.4 21.1 19.0 81 2.2 SSE 24 28 13 15 1015.4 1015.3 0.2
25/02:30am 22.4 22.9 21.2 93 0.8 SE 20 24 11 13 1015.3 - 0.2
25/02:00am 22.8 22.8 21.6 93 0.8 SE 24 26 13 14 1015.4 - 0.2
25/01:30am 22.9 23.8 21.9 94 0.7 SSE 20 24 11 13 1015.6 - 0.2
25/01:00am 23.1 24.8 22.3 95 0.5 SSE 17 20 9 11 1015.9 - 0.2
25/12:41am 23.3 25.4 22.5 95 0.5 SSE 15 17 8 9 1015.9 - 0.2
25/12:30am 23.3 25.8 22.5 95 0.5 SSE 13 17 7 9 1015.9 - 0.2
25/12:00am 23.4 25.9 22.4 94 0.7 S 13 17 7 9 1016.1 1016.0 0.2
 
Date/Time
EST
Temp
°C
App
Temp
°C
Dew
Point
°C
Rel
Hum
%
Delta-T
°C
Wind Press
QNH
hPa
Press
MSL
hPa
Rain since
9am
mm
Dir  Spd
km/h
Gust
km/h
Spd
kts
Gust
kts
24/11:44pm 23.4 25.8 22.2 93 0.8 S 13 17 7 9 1016.2 - 0.2
24/11:30pm 23.2 26.1 21.8 92 0.9 SSW 9 13 5 7 1016.3 - 0.2
24/11:15pm 23.2 26.6 22.0 93 0.8 SW 7 9 4 5 1016.3 - 0.2
24/11:00pm 23.3 26.8 22.1 93 0.8 WSW 7 11 4 6 1016.3 - 0.2
24/10:53pm 23.3 26.8 22.1 93 0.8 WSW 7 11 4 6 1016.3 - 0.2
24/10:30pm 23.3 26.8 22.1 93 0.8 WNW 7 11 4 6 1016.2 - 0.2
24/10:00pm 23.4 26.1 22.2 93 0.8 NW 11 13 6 7 1016.1 - 0.2
24/09:30pm 23.5 25.8 22.1 92 0.9 NW 13 15 7 8 1015.9 - 0.2
24/09:00pm 23.5 26.0 21.8 90 1.1 NW 11 13 6 7 1015.7 1015.6 0.2
24/08:30pm 23.7 25.9 21.8 89 1.3 NW 13 15 7 8 1015.5 - 0.2
24/08:00pm 23.9 27.2 22.5 92 0.9 WNW 9 11 5 6 1015.4 - 0.2
24/07:30pm 24.0 27.1 22.1 89 1.3 NNW 9 11 5 6 1015.2 - 0.2
24/07:00pm 24.0 27.3 21.9 88 1.4 N 7 11 4 6 1014.9 - 0.2
24/06:30pm 24.2 27.3 22.1 88 1.4 NW 9 15 5 8 1014.6 - 0.2
24/06:00pm 24.4 24.6 22.1 87 1.5 NW 24 30 13 16 1013.8 1013.6 0.2
24/05:30pm 24.6 24.7 21.9 85 1.8 NW 24 28 13 15 1013.5 - 0.2
24/05:00pm 25.2 25.1 21.5 80 2.5 NW 24 30 13 16 1013.2 - 0.2
24/04:30pm 25.8 25.9 21.2 76 3.0 NNW 22 28 12 15 1012.8 - 0.2
24/04:00pm 26.1 26.1 21.7 77 2.9 NNW 24 30 13 16 1012.6 - 0.2
24/03:30pm 26.3 27.0 21.5 75 3.2 NNW 20 24 11 13 1012.6 - 0.2
24/03:00pm 26.5 26.9 21.7 75 3.2 NW 22 28 12 15 1012.5 1012.3 0.2
24/02:30pm 27.0 28.1 21.3 71 3.8 NW 17 22 9 12 1012.7 - 0.2
24/02:00pm 26.7 30.9 22.5 78 2.8 S 4 13 2 7 1012.8 - 0.2
24/01:30pm 26.8 30.4 22.0 75 3.2 SE 6 13 3 7 1013.3 - 0.2
24/01:00pm 26.8 28.9 20.9 70 3.9 NW 11 15 6 8 1013.7 - 0.2
24/12:30pm 27.3 30.0 21.3 69 4.0 N 9 11 5 6 1014.2 - 0.2
24/12:00pm 27.3 30.1 21.6 71 3.8 NNW 9 13 5 7 1014.8 1014.7 0.2
24/11:30am 25.4 28.5 21.5 79 2.6 SSE 7 11 4 6 1015.3 - 0.0
24/11:00am 25.1 28.3 21.6 81 2.3 ESE 7 11 4 6 1015.5 - 0.0
24/10:30am 25.2 28.5 21.5 80 2.5 ESE 6 9 3 5 1015.8 - 0.0
24/10:00am 25.4 29.0 21.3 78 2.7 NW 4 7 2 4 1015.8 - 0.0
24/09:30am 24.5 28.2 21.4 83 2.1 SSW 4 7 2 4 1016.0 - 0.0
24/09:08am 23.9 26.5 21.2 85 1.8 SW 9 15 5 8 1015.9 - 0.0
24/09:00am 23.7 26.6 20.6 83 2.0 W 6 9 3 5 1015.8 1015.7 0.0
24/08:52am 23.5 26.3 20.8 85 1.8 W 7 9 4 5 1015.7 - 0.0
24/08:33am 23.0 27.3 21.1 89 1.2 CALM 0 2 0 1 1015.7 - 0.0
24/08:30am 23.1 27.1 21.4 90 1.1 WSW 2 6 1 3 1015.7 - 0.0
24/08:00am 22.8 26.1 21.8 94 0.7 SSW 7 9 4 5 1015.4 - 0.0
24/07:30am 22.6 26.8 21.8 95 0.5 S 2 6 1 3 1015.2 - 0.0
24/07:00am 22.4 26.2 21.6 95 0.5 WNW 4 6 2 3 1014.7 - 0.0
24/06:30am 22.3 25.4 21.5 95 0.5 W 7 9 4 5 1014.2 - 0.0
24/06:00am 22.4 26.2 21.6 95 0.5 W 4 6 2 3 1013.9 1013.7 0.0
24/05:30am 22.3 26.8 21.5 95 0.5 CALM 0 0 0 0 1013.6 - 0.0
24/05:00am 22.3 26.0 21.5 95 0.5 W 4 7 2 4 1013.5 - 0.0
24/04:53am 22.3 25.4 21.5 95 0.5 W 7 9 4 5 1013.5 - 0.0
24/04:30am 22.1 24.8 21.3 95 0.5 W 9 11 5 6 1013.4 - 0.0
24/04:00am 22.1 25.1 21.3 95 0.5 WNW 7 9 4 5 1013.2 - 0.0
24/03:30am 22.1 24.8 21.3 95 0.5 NW 9 11 5 6 1013.2 - 0.0
24/03:00am 22.1 24.8 21.3 95 0.5 N 9 11 5 6 1013.3 1013.1 0.0
24/02:30am 22.3 25.3 21.3 94 0.7 N 7 13 4 7 1013.7 - 0.0
24/02:00am 22.5 27.0 21.5 94 0.7 CALM 0 0 0 0 1014.1 - 0.0
24/01:30am 22.6 27.0 21.4 93 0.8 CALM 0 0 0 0 1014.3 - 0.0
24/01:00am 22.7 27.2 21.5 93 0.8 CALM 0 0 0 0 1014.6 - 0.0
24/12:30am 22.8 26.1 21.4 92 0.9 S 6 7 3 4 1014.7 - 0.0
24/12:00am 22.9 26.2 21.5 92 0.9 SSW 6 7 3 4 1014.8 1014.7 0.0
 
Date/Time
EST
Temp
°C
App
Temp
°C
Dew
Point
°C
Rel
Hum
%
Delta-T
°C
Wind Press
QNH
hPa
Press
MSL
hPa
Rain since
9am
mm
Dir  Spd
km/h
Gust
km/h
Spd
kts
Gust
kts
23/11:35pm 22.8 27.1 21.1 90 1.1 CALM 0 7 0 4 1015.0 - 0.0
23/11:30pm 22.8 27.2 21.3 91 1.0 CALM 0 0 0 0 1015.0 - 0.0
23/11:00pm 22.8 27.2 21.3 91 1.0 CALM 0 0 0 0 1015.1 - 0.0
23/10:44pm 22.8 27.2 21.3 91 1.0 CALM 0 0 0 0 1015.0 - 0.0
23/10:30pm 22.8 27.2 21.3 91 1.0 CALM 0 0 0 0 1015.0 - 0.0
23/10:00pm 22.9 27.1 21.0 89 1.2 CALM 0 0 0 0 1014.8 - 0.0

Other Formats:

Comma delimited format used in spreadsheet applications
http://www.bom.gov.au/fwo/IDQ60801/IDQ60801.94368.axf

JavaScript Object Notation format (JSON) in row-major order
http://www.bom.gov.au/fwo/IDQ60801/IDQ60801.94368.json